Buchanan Airport

Jump to: basic info | weather | comments

Related pages: nearby airports | nearby navaids | notams | map

Basic information (top)

Codes: UCN GLBU
Location: lon 5.167650, lat -9.283470, elev 41 ft / 12 m msl
Status: small_airport
Scheduled airline service: no
Links: Wikipedia Mobile

Weather (top)

Current conditions for Roberts International Airport 91nm (168km) NW (rec'd 2015/01/29 22:00Z):

GLRB 292200Z 00000KT 8000 FEW014 25/24 Q1012 BRVC

Airport forecast for Roberts International Airport 91nm (168km) NW (rec'd 2015/01/29 18:51Z):

TAF GLRB 291600Z 2918/3024 23008KT 9999 SCT020 
      BECMG 2920/2922 00000KT 9999 FEW015 
      TEMPO 2923/3004 VRB03KT 8000 
      BECMG 3005/3007 00000KT 5000 BR

Latest comments (top)

No comments yet for Buchanan Airport

More... (top)

See also NOTAMs and nearby airports and navaids, or visit the Buchanan Airport page at the main OurAirports website..